createdAt,value
2022-10-10T00:00:11.584Z,14.00
2022-10-10T00:02:38.401Z,14.00
2022-10-10T00:05:05.632Z,14.00
2022-10-10T00:07:32.475Z,14.00
2022-10-10T00:09:59.660Z,14.00
2022-10-10T00:12:26.610Z,13.80
2022-10-10T00:14:55.040Z,13.90
2022-10-10T00:17:22.023Z,13.80
2022-10-10T00:19:49.113Z,13.70
2022-10-10T00:22:16.108Z,13.80
2022-10-10T00:24:43.169Z,13.60
2022-10-10T00:27:10.137Z,13.50
2022-10-10T00:29:37.284Z,13.30
2022-10-10T00:32:05.643Z,13.10
2022-10-10T00:34:32.564Z,13.10
2022-10-10T00:36:59.293Z,13.10
2022-10-10T00:39:26.037Z,13.20
2022-10-10T00:41:52.794Z,13.20
2022-10-10T00:44:19.548Z,13.30
2022-10-10T00:46:46.290Z,13.40
2022-10-10T00:49:17.708Z,13.40
2022-10-10T00:51:47.141Z,13.40
2022-10-10T00:54:15.789Z,13.40
2022-10-10T00:56:46.837Z,13.30
2022-10-10T00:59:15.088Z,13.10
2022-10-10T01:01:43.196Z,13.10
2022-10-10T01:04:33.642Z,13.10
2022-10-10T01:07:02.169Z,12.80
2022-10-10T01:09:29.178Z,12.80
2022-10-10T01:12:06.158Z,12.80
2022-10-10T01:14:40.534Z,12.90
2022-10-10T01:17:14.547Z,13.00
2022-10-10T01:20:32.853Z,13.20
2022-10-10T01:23:19.112Z,13.20
2022-10-10T01:26:01.293Z,13.10
2022-10-10T01:28:51.249Z,12.90
2022-10-10T01:31:22.712Z,12.70
2022-10-10T01:33:54.659Z,12.80
2022-10-10T01:36:22.792Z,12.80
2022-10-10T01:38:52.795Z,12.80
2022-10-10T01:41:22.076Z,12.90
2022-10-10T01:43:54.085Z,13.00
2022-10-10T01:46:20.926Z,13.00
2022-10-10T01:48:51.020Z,12.90
2022-10-10T01:51:23.043Z,13.20
2022-10-10T01:53:51.872Z,13.10
2022-10-10T01:56:31.223Z,13.30
2022-10-10T01:59:15.276Z,13.20
2022-10-10T02:01:44.989Z,13.20
2022-10-10T02:04:14.894Z,13.30
2022-10-10T02:06:44.363Z,13.30
2022-10-10T02:09:13.750Z,13.10
2022-10-10T02:11:40.896Z,13.10
2022-10-10T02:14:12.165Z,13.30
2022-10-10T02:16:39.893Z,13.30
2022-10-10T02:19:07.865Z,13.50
2022-10-10T02:21:34.835Z,13.40
2022-10-10T02:24:03.464Z,13.50
2022-10-10T02:26:31.174Z,13.50
2022-10-10T02:29:00.173Z,13.50
2022-10-10T02:31:33.289Z,13.40
2022-10-10T02:34:06.312Z,13.70
2022-10-10T02:36:33.481Z,13.50
2022-10-10T02:39:00.894Z,13.50
2022-10-10T02:41:28.535Z,13.30
2022-10-10T02:43:55.588Z,13.50
2022-10-10T02:46:22.844Z,13.30
2022-10-10T02:48:51.151Z,13.30
2022-10-10T02:51:18.278Z,13.30
2022-10-10T02:53:46.082Z,13.20
2022-10-10T02:56:12.938Z,13.00
2022-10-10T02:58:39.723Z,13.00
2022-10-10T03:01:06.582Z,13.00
2022-10-10T03:03:33.864Z,13.30
2022-10-10T03:06:02.678Z,13.30
2022-10-10T03:08:29.511Z,13.20
2022-10-10T03:10:57.200Z,13.10
2022-10-10T03:13:24.332Z,13.20
2022-10-10T03:15:51.156Z,13.20
2022-10-10T03:18:18.004Z,13.00
2022-10-10T03:20:45.118Z,12.90
2022-10-10T03:23:13.459Z,12.90
2022-10-10T03:25:41.467Z,12.80
2022-10-10T03:28:12.018Z,12.80
2022-10-10T03:30:39.584Z,12.60
2022-10-10T03:33:07.112Z,12.60
2022-10-10T03:35:34.414Z,12.80
2022-10-10T03:38:01.285Z,12.80
2022-10-10T03:40:30.409Z,12.70
2022-10-10T03:42:57.451Z,12.80
2022-10-10T03:45:24.318Z,12.80
2022-10-10T03:47:51.572Z,12.90
2022-10-10T03:50:18.496Z,12.90
2022-10-10T03:52:45.483Z,12.80
2022-10-10T03:55:12.319Z,12.90
2022-10-10T03:57:40.524Z,12.60
2022-10-10T04:00:08.157Z,12.60
2022-10-10T04:02:34.972Z,12.70
2022-10-10T04:05:01.803Z,12.70
2022-10-10T04:07:28.675Z,12.70
2022-10-10T04:09:55.463Z,12.70
2022-10-10T04:12:22.401Z,12.70
2022-10-10T04:14:50.591Z,12.70
2022-10-10T04:17:17.483Z,12.70
2022-10-10T04:19:44.484Z,12.90
2022-10-10T04:22:11.445Z,12.80
2022-10-10T04:24:38.281Z,12.70
2022-10-10T04:27:05.398Z,12.60
2022-10-10T04:29:32.213Z,12.50
2022-10-10T04:32:00.435Z,12.60
2022-10-10T04:34:28.421Z,12.70
2022-10-10T04:36:55.319Z,12.70
2022-10-10T04:39:22.306Z,12.60
2022-10-10T04:41:50.014Z,12.60
2022-10-10T04:44:17.108Z,12.50
2022-10-10T04:46:44.191Z,12.60
2022-10-10T04:49:13.190Z,12.30
2022-10-10T04:51:40.428Z,12.60
2022-10-10T04:54:07.295Z,12.50
2022-10-10T04:56:37.084Z,12.60
2022-10-10T04:59:03.916Z,12.40
2022-10-10T05:01:31.174Z,12.50
2022-10-10T05:03:58.041Z,12.60
2022-10-10T05:06:26.300Z,12.80
2022-10-10T05:08:53.143Z,12.60
2022-10-10T05:11:19.975Z,12.40
2022-10-10T05:13:47.144Z,12.40
2022-10-10T05:16:14.038Z,12.30
2022-10-10T05:18:40.846Z,12.40
2022-10-10T05:21:07.892Z,12.10
2022-10-10T05:23:36.148Z,12.20
2022-10-10T05:26:02.981Z,12.40
2022-10-10T05:28:29.893Z,12.00
2022-10-10T05:30:56.779Z,12.10
2022-10-10T05:33:23.574Z,12.20
2022-10-10T05:35:50.388Z,12.40
2022-10-10T05:38:17.168Z,12.10
2022-10-10T05:40:45.284Z,12.10
2022-10-10T05:43:12.736Z,12.30
2022-10-10T05:45:39.612Z,12.30
2022-10-10T05:48:06.513Z,12.20
2022-10-10T05:50:34.525Z,12.30
2022-10-10T05:53:01.515Z,12.30
2022-10-10T05:55:28.349Z,12.40
2022-10-10T05:57:56.615Z,12.50
2022-10-10T06:00:23.581Z,12.30
2022-10-10T06:02:51.087Z,12.50
2022-10-10T06:05:18.225Z,12.50
2022-10-10T06:08:04.610Z,12.60
2022-10-10T06:10:33.831Z,12.70
2022-10-10T06:13:02.421Z,12.50
2022-10-10T06:15:29.511Z,12.60
2022-10-10T06:17:56.785Z,12.80
2022-10-10T06:20:23.733Z,12.80
2022-10-10T06:22:50.682Z,12.90
2022-10-10T06:25:38.535Z,12.80
2022-10-10T06:28:06.769Z,12.80
2022-10-10T06:30:35.274Z,12.90
2022-10-10T06:33:02.190Z,12.90
2022-10-10T06:35:29.786Z,13.10
2022-10-10T06:37:56.602Z,13.30
2022-10-10T06:40:23.893Z,13.50
2022-10-10T06:42:50.983Z,14.10
2022-10-10T06:45:19.647Z,14.70
2022-10-10T06:47:46.466Z,15.60
2022-10-10T06:50:13.232Z,16.10
2022-10-10T06:52:40.590Z,16.60
2022-10-10T06:55:08.244Z,16.80
2022-10-10T06:57:36.262Z,17.00
2022-10-10T07:00:04.384Z,16.80
2022-10-10T07:02:32.570Z,16.30
2022-10-10T07:04:59.718Z,15.90
2022-10-10T07:07:26.498Z,16.00
2022-10-10T07:09:53.347Z,16.00
2022-10-10T07:12:20.384Z,15.90
2022-10-10T07:14:47.363Z,16.10
2022-10-10T07:17:14.795Z,16.00
2022-10-10T07:19:43.241Z,15.90
2022-10-10T07:22:09.994Z,15.80
2022-10-10T07:24:37.117Z,15.50
2022-10-10T07:27:08.594Z,15.60
2022-10-10T07:29:35.771Z,15.70
2022-10-10T07:32:02.588Z,15.70
2022-10-10T07:34:29.429Z,15.60
2022-10-10T07:36:58.033Z,15.80
2022-10-10T07:39:26.196Z,16.20
2022-10-10T07:41:53.222Z,16.40
2022-10-10T07:44:20.524Z,16.70
2022-10-10T07:46:47.335Z,17.00
2022-10-10T07:49:14.078Z,17.30
2022-10-10T07:51:41.218Z,17.70
2022-10-10T07:54:10.010Z,18.20
2022-10-10T07:56:36.997Z,18.30
2022-10-10T07:59:03.867Z,18.60
2022-10-10T08:01:30.998Z,18.60
2022-10-10T08:03:58.033Z,18.90
2022-10-10T08:06:25.108Z,19.20
2022-10-10T08:08:52.539Z,19.10
2022-10-10T08:11:22.138Z,18.50
2022-10-10T08:13:50.189Z,18.60
2022-10-10T08:16:17.903Z,18.40
2022-10-10T08:18:45.017Z,18.10
2022-10-10T08:21:13.907Z,17.90
2022-10-10T08:23:40.711Z,17.80
2022-10-10T08:26:08.476Z,17.20
2022-10-10T08:28:36.921Z,17.50
2022-10-10T08:31:06.009Z,17.60
2022-10-10T08:33:33.136Z,17.70
2022-10-10T08:36:03.999Z,17.60
2022-10-10T08:38:30.763Z,17.60
2022-10-10T08:40:57.683Z,18.00
2022-10-10T08:43:27.078Z,18.50
2022-10-10T08:45:57.377Z,19.10
2022-10-10T08:48:25.943Z,19.50
2022-10-10T08:50:55.544Z,20.40
2022-10-10T08:53:24.652Z,20.80
2022-10-10T08:55:53.330Z,21.40
2022-10-10T08:58:23.857Z,22.10
2022-10-10T09:00:54.342Z,22.30
2022-10-10T09:03:26.222Z,23.00
2022-10-10T09:06:05.345Z,23.40
2022-10-10T09:08:43.791Z,22.70
2022-10-10T09:11:22.674Z,22.90
2022-10-10T09:14:02.848Z,23.40
2022-10-10T09:16:38.532Z,23.40
2022-10-10T09:19:17.471Z,23.60
2022-10-10T09:21:45.930Z,23.30
2022-10-10T09:24:16.313Z,23.20
2022-10-10T09:26:47.458Z,23.40
2022-10-10T09:29:24.065Z,24.00
2022-10-10T09:31:51.896Z,23.80
2022-10-10T09:34:22.890Z,23.80
2022-10-10T09:36:50.537Z,23.80
2022-10-10T09:39:23.203Z,23.80
2022-10-10T09:41:55.528Z,23.30
2022-10-10T09:44:22.944Z,22.90
2022-10-10T09:46:49.821Z,22.80
2022-10-10T09:49:17.479Z,22.70
2022-10-10T09:51:46.620Z,22.50
2022-10-10T09:54:15.775Z,22.40
2022-10-10T09:56:44.401Z,22.50
2022-10-10T09:59:26.059Z,22.30
2022-10-10T10:02:01.757Z,22.50
2022-10-10T10:04:33.574Z,22.60
2022-10-10T10:07:06.632Z,22.70
2022-10-10T10:09:33.527Z,22.50
2022-10-10T10:12:00.414Z,22.60
2022-10-10T10:14:28.870Z,22.60
2022-10-10T10:17:04.683Z,22.60
2022-10-10T10:19:32.516Z,22.30
2022-10-10T10:21:59.311Z,22.40
2022-10-10T10:24:32.447Z,22.30
2022-10-10T10:27:08.616Z,22.20
2022-10-10T10:29:35.746Z,22.10
2022-10-10T10:32:04.491Z,22.30
2022-10-10T10:35:00.807Z,22.70
2022-10-10T10:37:32.276Z,23.00
2022-10-10T10:40:10.930Z,23.20
2022-10-10T10:42:44.068Z,23.60
2022-10-10T10:45:14.921Z,23.90
2022-10-10T10:47:44.402Z,23.90
2022-10-10T10:50:23.703Z,24.20
2022-10-10T10:52:58.132Z,24.30
2022-10-10T10:55:35.885Z,24.30
2022-10-10T11:01:28.714Z,25.40
2022-10-10T11:05:24.938Z,27.20
2022-10-10T11:06:59.997Z,28.20
2022-10-10T11:09:49.609Z,29.10
2022-10-10T11:12:22.483Z,29.20
2022-10-10T11:14:55.534Z,29.70
2022-10-10T11:17:25.503Z,29.40
2022-10-10T11:19:56.907Z,29.10
2022-10-10T11:22:26.009Z,28.60
2022-10-10T11:24:54.355Z,28.00
2022-10-10T11:27:24.931Z,27.90
2022-10-10T11:29:56.984Z,27.10
2022-10-10T11:32:26.587Z,26.10
2022-10-10T11:35:01.643Z,25.70
2022-10-10T11:37:31.023Z,25.60
2022-10-10T11:39:59.748Z,26.00
2022-10-10T11:42:32.084Z,26.10
2022-10-10T11:45:01.052Z,25.90
2022-10-10T11:47:31.678Z,25.90
2022-10-10T11:50:01.321Z,25.40
2022-10-10T11:52:34.949Z,24.90
2022-10-10T11:55:09.143Z,24.60
2022-10-10T11:57:44.942Z,24.60
2022-10-10T12:00:14.054Z,25.00
2022-10-10T12:02:42.273Z,25.00
2022-10-10T12:05:20.598Z,25.30
2022-10-10T12:08:00.140Z,25.30
2022-10-10T12:10:32.608Z,25.10
2022-10-10T12:13:12.191Z,24.60
2022-10-10T12:15:43.520Z,24.20
2022-10-10T12:18:23.375Z,24.10
2022-10-10T12:21:02.247Z,23.90
2022-10-10T12:23:30.166Z,23.80
2022-10-10T12:25:57.050Z,23.90
2022-10-10T12:28:26.915Z,23.80
2022-10-10T12:31:11.452Z,23.40
2022-10-10T12:33:56.928Z,23.20
2022-10-10T12:36:38.616Z,23.10
2022-10-10T12:39:23.982Z,23.10
2022-10-10T12:41:56.131Z,23.00
2022-10-10T12:44:25.106Z,22.60
2022-10-10T12:47:06.949Z,22.60
2022-10-10T12:49:34.931Z,22.50
2022-10-10T12:52:03.373Z,22.50
2022-10-10T12:54:32.105Z,22.20
2022-10-10T12:57:06.539Z,21.90
2022-10-10T12:59:35.612Z,21.80
2022-10-10T13:02:04.493Z,21.90
2022-10-10T13:04:31.481Z,21.50
2022-10-10T13:06:59.294Z,21.50
2022-10-10T13:09:29.991Z,21.40
2022-10-10T13:12:01.887Z,21.40
2022-10-10T13:14:38.535Z,21.40
2022-10-10T13:17:18.859Z,21.40
2022-10-10T13:19:45.657Z,21.30
2022-10-10T13:22:12.502Z,21.20
2022-10-10T13:24:40.553Z,21.10
2022-10-10T13:27:15.112Z,21.20
2022-10-10T13:29:43.532Z,21.20
2022-10-10T13:32:13.337Z,21.30
2022-10-10T13:34:42.791Z,21.20
2022-10-10T13:37:12.738Z,21.10
2022-10-10T13:39:39.970Z,21.00
2022-10-10T13:42:10.196Z,20.70
2022-10-10T13:44:49.229Z,20.50
2022-10-10T13:47:34.768Z,20.50
2022-10-10T13:50:01.765Z,20.40
2022-10-10T13:52:28.670Z,20.60
2022-10-10T13:55:13.785Z,20.40
2022-10-10T13:57:43.785Z,20.40
2022-10-10T14:00:18.037Z,20.20
2022-10-10T14:02:49.189Z,19.90
2022-10-10T14:05:18.046Z,19.80
2022-10-10T14:07:47.745Z,20.00
2022-10-10T14:10:16.871Z,19.90
2022-10-10T14:12:50.799Z,19.80
2022-10-10T14:15:35.817Z,19.60
2022-10-10T14:18:03.413Z,19.40
2022-10-10T14:20:30.194Z,19.40
2022-10-10T14:22:57.306Z,19.40
2022-10-10T14:25:24.337Z,19.30
2022-10-10T14:27:51.432Z,19.30
2022-10-10T14:30:18.546Z,19.00
2022-10-10T14:32:46.678Z,18.70
2022-10-10T14:35:13.707Z,18.30
2022-10-10T14:37:40.527Z,18.00
2022-10-10T14:40:15.520Z,17.70
2022-10-10T14:42:42.491Z,17.60
2022-10-10T14:45:13.123Z,17.70
2022-10-10T14:47:40.261Z,17.10
2022-10-10T14:50:15.698Z,17.00
2022-10-10T14:52:42.504Z,17.10
2022-10-10T14:55:10.440Z,17.00
2022-10-10T14:57:37.425Z,17.00
2022-10-10T15:00:05.945Z,17.20
2022-10-10T15:02:32.938Z,17.40
2022-10-10T15:04:59.747Z,17.50
2022-10-10T15:07:28.016Z,17.60
2022-10-10T15:12:43.450Z,18.00
2022-10-10T15:15:10.904Z,18.20
2022-10-10T15:17:38.037Z,18.30
2022-10-10T15:20:05.800Z,18.40
2022-10-10T15:22:34.579Z,18.20
2022-10-10T15:25:01.542Z,18.30
2022-10-10T15:27:28.445Z,18.60
2022-10-10T15:29:55.309Z,18.60
2022-10-10T15:32:22.135Z,18.80
2022-10-10T15:34:49.491Z,18.90
2022-10-10T15:37:16.305Z,18.80
2022-10-10T15:39:44.903Z,18.80
2022-10-10T15:42:16.095Z,18.80
2022-10-10T15:44:46.930Z,18.50
2022-10-10T15:47:14.448Z,18.90
2022-10-10T15:49:41.435Z,18.90
2022-10-10T15:52:08.570Z,19.00
2022-10-10T15:54:35.423Z,19.10
2022-10-10T15:57:03.607Z,19.10
2022-10-10T15:59:30.485Z,19.00
2022-10-10T16:01:57.306Z,19.20
2022-10-10T16:04:25.243Z,19.10
2022-10-10T16:06:54.586Z,19.30
2022-10-10T16:09:33.019Z,19.10
2022-10-10T16:12:00.409Z,19.00
2022-10-10T16:14:28.674Z,18.70
2022-10-10T16:16:55.616Z,18.50
2022-10-10T16:19:22.561Z,18.30
2022-10-10T16:21:49.387Z,18.20
2022-10-10T16:24:16.329Z,18.30
2022-10-10T16:26:43.136Z,18.20
2022-10-10T16:29:10.307Z,18.00
2022-10-10T16:31:39.327Z,18.00
2022-10-10T16:34:06.764Z,18.00
2022-10-10T16:36:35.090Z,17.80
2022-10-10T16:39:02.200Z,17.70
2022-10-10T16:41:47.010Z,17.50
2022-10-10T16:44:15.415Z,17.50
2022-10-10T16:46:43.778Z,17.30
2022-10-10T16:49:11.625Z,17.30
2022-10-10T16:51:38.476Z,17.30
2022-10-10T16:54:06.344Z,17.20
2022-10-10T16:56:33.228Z,17.00
2022-10-10T16:59:00.198Z,17.10
2022-10-10T17:01:27.490Z,17.00
2022-10-10T17:03:57.870Z,16.90
2022-10-10T17:06:24.741Z,16.70
2022-10-10T17:08:52.240Z,16.70
2022-10-10T17:11:20.546Z,16.60
2022-10-10T17:13:48.635Z,16.70
2022-10-10T17:19:05.609Z,16.40
2022-10-10T17:21:32.690Z,16.30
2022-10-10T17:23:59.625Z,16.20
2022-10-10T17:26:27.926Z,16.10
2022-10-10T17:28:55.746Z,16.00
2022-10-10T17:31:23.126Z,15.80
2022-10-10T17:33:53.958Z,15.70
2022-10-10T17:36:23.744Z,15.80
2022-10-10T17:38:50.948Z,15.70
2022-10-10T17:41:18.354Z,15.60
2022-10-10T17:43:45.373Z,15.60
2022-10-10T17:46:34.675Z,15.50
2022-10-10T17:49:01.172Z,15.50
2022-10-10T17:51:29.367Z,15.50
2022-10-10T17:53:58.471Z,15.40
2022-10-10T17:56:25.316Z,15.30
2022-10-10T17:58:52.170Z,15.20
2022-10-10T18:01:19.624Z,15.20
2022-10-10T18:03:46.651Z,15.10
2022-10-10T18:06:14.515Z,15.10
2022-10-10T18:08:43.119Z,15.10
2022-10-10T18:11:13.488Z,15.10
2022-10-10T18:13:40.805Z,15.10
2022-10-10T18:16:08.633Z,15.10
2022-10-10T18:18:35.421Z,15.10
2022-10-10T18:21:03.858Z,15.00
2022-10-10T18:23:31.402Z,15.00
2022-10-10T18:26:00.145Z,15.00
2022-10-10T18:28:29.107Z,14.90
2022-10-10T18:30:56.076Z,14.90
2022-10-10T18:33:22.873Z,14.90
2022-10-10T18:35:49.748Z,14.80
2022-10-10T18:38:16.627Z,14.70
2022-10-10T18:40:43.478Z,14.70
2022-10-10T18:43:13.023Z,14.60
2022-10-10T18:45:39.852Z,14.70
2022-10-10T18:48:06.709Z,14.70
2022-10-10T18:50:36.330Z,14.60
2022-10-10T18:53:03.235Z,14.50
2022-10-10T18:55:30.617Z,14.60
2022-10-10T18:57:57.786Z,14.50
2022-10-10T19:00:25.998Z,14.40
2022-10-10T19:02:53.258Z,14.40
2022-10-10T19:05:20.101Z,14.40
2022-10-10T19:07:46.936Z,14.40
2022-10-10T19:10:13.757Z,14.30
2022-10-10T19:12:43.944Z,14.30
2022-10-10T19:15:14.752Z,14.30
2022-10-10T19:17:42.931Z,14.20
2022-10-10T19:20:10.278Z,14.30
2022-10-10T19:22:37.076Z,14.30
2022-10-10T19:25:04.459Z,14.30
2022-10-10T19:27:31.476Z,14.20
2022-10-10T19:29:59.267Z,14.20
2022-10-10T19:32:27.618Z,14.30
2022-10-10T19:34:55.817Z,14.10
2022-10-10T19:37:22.623Z,14.20
2022-10-10T19:39:49.397Z,14.10
2022-10-10T19:42:16.197Z,14.10
2022-10-10T19:44:43.105Z,14.10
2022-10-10T19:47:09.898Z,14.00
2022-10-10T19:49:36.923Z,14.00
2022-10-10T19:52:05.283Z,13.90
2022-10-10T19:54:32.597Z,14.00
2022-10-10T19:56:59.410Z,13.90
2022-10-10T19:59:26.498Z,13.90
2022-10-10T20:02:02.467Z,13.90
2022-10-10T20:04:29.383Z,13.80
2022-10-10T20:06:58.463Z,13.90
2022-10-10T20:09:27.796Z,13.80
2022-10-10T20:11:54.595Z,13.80
2022-10-10T20:14:21.414Z,13.70
2022-10-10T20:16:48.179Z,13.70
2022-10-10T20:19:15.104Z,13.70
2022-10-10T20:21:41.905Z,13.70
2022-10-10T20:24:13.593Z,13.60
2022-10-10T20:26:41.772Z,13.60
2022-10-10T20:29:11.277Z,13.50
2022-10-10T20:31:43.454Z,13.50
2022-10-10T20:34:10.305Z,13.50
2022-10-10T20:36:37.557Z,13.50
2022-10-10T20:39:06.502Z,13.50
2022-10-10T20:41:34.163Z,13.40
2022-10-10T20:44:03.392Z,13.30
2022-10-10T20:46:32.911Z,13.50
2022-10-10T20:49:00.989Z,13.70
2022-10-10T20:51:29.690Z,13.60
2022-10-10T20:53:57.648Z,13.60
2022-10-10T20:56:25.355Z,13.60
2022-10-10T20:58:52.210Z,13.60
2022-10-10T21:01:22.825Z,13.80
2022-10-10T21:03:50.223Z,13.80
2022-10-10T21:06:18.055Z,13.70
2022-10-10T21:08:44.954Z,13.70
2022-10-10T21:11:12.823Z,13.80
2022-10-10T21:13:40.986Z,13.80
2022-10-10T21:16:08.755Z,13.80
2022-10-10T21:18:37.223Z,13.90
2022-10-10T21:21:05.406Z,13.90
2022-10-10T21:23:33.396Z,14.00
2022-10-10T21:26:03.444Z,14.10
2022-10-10T21:28:30.534Z,14.00
2022-10-10T21:30:58.143Z,13.90
2022-10-10T21:33:25.034Z,14.00
2022-10-10T21:35:53.746Z,14.00
2022-10-10T21:38:20.652Z,13.90
2022-10-10T21:40:47.931Z,13.90
2022-10-10T21:43:15.266Z,13.80
2022-10-10T21:45:42.451Z,13.80
2022-10-10T21:48:10.611Z,13.80
2022-10-10T21:50:37.789Z,13.70
2022-10-10T21:53:06.801Z,13.60
2022-10-10T21:55:33.685Z,13.80
2022-10-10T21:58:00.468Z,13.60
2022-10-10T22:00:27.390Z,13.70
2022-10-10T22:02:54.290Z,13.60
2022-10-10T22:05:21.319Z,13.50
2022-10-10T22:07:48.129Z,13.60
2022-10-10T22:10:17.662Z,13.50
2022-10-10T22:12:44.746Z,13.30
2022-10-10T22:15:12.810Z,13.50
2022-10-10T22:17:39.935Z,13.50
2022-10-10T22:20:07.752Z,13.70
2022-10-10T22:22:35.056Z,13.60
2022-10-10T22:25:01.826Z,13.50
2022-10-10T22:27:30.714Z,13.40
2022-10-10T22:29:57.556Z,13.40
2022-10-10T22:32:24.567Z,13.50
2022-10-10T22:34:51.392Z,13.60
2022-10-10T22:37:18.210Z,13.40
2022-10-10T22:39:45.349Z,13.40
2022-10-10T22:42:12.219Z,13.30
2022-10-10T22:44:40.362Z,13.30
2022-10-10T22:47:07.095Z,13.20
2022-10-10T22:49:37.685Z,13.20
2022-10-10T22:52:04.991Z,13.20
2022-10-10T22:54:31.992Z,13.20
2022-10-10T22:56:58.872Z,13.20
2022-10-10T22:59:25.748Z,13.20
2022-10-10T23:01:54.578Z,13.10
2022-10-10T23:04:21.387Z,13.10
2022-10-10T23:06:48.175Z,13.00
2022-10-10T23:09:15.102Z,13.00
2022-10-10T23:11:42.049Z,13.00
2022-10-10T23:14:08.903Z,12.90
2022-10-10T23:16:39.703Z,12.90
2022-10-10T23:19:08.878Z,12.80
2022-10-10T23:21:35.756Z,12.80
2022-10-10T23:24:02.600Z,12.80
2022-10-10T23:26:29.384Z,12.70
2022-10-10T23:28:56.223Z,12.60
2022-10-10T23:31:23.071Z,12.60
2022-10-10T23:33:49.887Z,12.50
2022-10-10T23:36:18.025Z,12.50
2022-10-10T23:38:44.817Z,12.50
2022-10-10T23:41:12.194Z,12.40
2022-10-10T23:43:39.019Z,12.40
2022-10-10T23:46:06.419Z,12.40
2022-10-10T23:48:33.503Z,12.30
2022-10-10T23:51:00.354Z,12.30
2022-10-10T23:53:28.777Z,12.30
2022-10-10T23:55:55.525Z,12.20
2022-10-10T23:58:22.481Z,12.20
